sensor_id;sensor_type;location;lat;lon;timestamp;P1;durP1;ratioP1;P2;durP2;ratioP2
76788;SDS011;65740;52.464;13.446;2023-08-31T00:01:31;20.20;;;18.90;;
76788;SDS011;65740;52.464;13.446;2023-08-31T00:03:58;19.50;;;18.30;;
76788;SDS011;65740;52.464;13.446;2023-08-31T00:06:24;19.43;;;18.23;;
76788;SDS011;65740;52.464;13.446;2023-08-31T00:08:50;18.50;;;17.40;;
76788;SDS011;65740;52.464;13.446;2023-08-31T00:11:16;17.93;;;16.93;;
76788;SDS011;65740;52.464;13.446;2023-08-31T00:13:41;19.40;;;18.20;;
76788;SDS011;65740;52.464;13.446;2023-08-31T00:16:07;19.80;;;18.60;;
76788;SDS011;65740;52.464;13.446;2023-08-31T00:18:35;19.00;;;17.80;;
76788;SDS011;65740;52.464;13.446;2023-08-31T00:21:03;18.97;;;17.87;;
76788;SDS011;65740;52.464;13.446;2023-08-31T00:23:29;19.20;;;18.00;;
76788;SDS011;65740;52.464;13.446;2023-08-31T00:25:55;17.97;;;16.87;;
76788;SDS011;65740;52.464;13.446;2023-08-31T00:28:22;19.37;;;18.17;;
76788;SDS011;65740;52.464;13.446;2023-08-31T00:30:48;19.27;;;18.07;;
76788;SDS011;65740;52.464;13.446;2023-08-31T00:33:14;19.20;;;18.03;;
76788;SDS011;65740;52.464;13.446;2023-08-31T00:35:40;18.03;;;16.93;;
76788;SDS011;65740;52.464;13.446;2023-08-31T00:38:11;18.17;;;17.17;;
76788;SDS011;65740;52.464;13.446;2023-08-31T00:40:40;18.10;;;17.10;;
76788;SDS011;65740;52.464;13.446;2023-08-31T00:43:10;18.70;;;17.60;;
76788;SDS011;65740;52.464;13.446;2023-08-31T00:45:36;18.97;;;17.87;;
76788;SDS011;65740;52.464;13.446;2023-08-31T00:48:03;17.83;;;16.83;;
76788;SDS011;65740;52.464;13.446;2023-08-31T00:50:30;17.80;;;16.80;;
76788;SDS011;65740;52.464;13.446;2023-08-31T00:52:55;18.27;;;17.17;;
76788;SDS011;65740;52.464;13.446;2023-08-31T00:55:21;17.67;;;16.67;;
76788;SDS011;65740;52.464;13.446;2023-08-31T00:57:47;18.17;;;17.07;;
76788;SDS011;65740;52.464;13.446;2023-08-31T01:00:13;18.07;;;17.03;;
76788;SDS011;65740;52.464;13.446;2023-08-31T01:05:13;18.40;;;17.30;;
76788;SDS011;65740;52.464;13.446;2023-08-31T01:07:46;18.03;;;17.03;;
76788;SDS011;65740;52.464;13.446;2023-08-31T01:10:43;18.93;;;17.83;;
76788;SDS011;65740;52.464;13.446;2023-08-31T01:13:21;17.77;;;16.77;;
76788;SDS011;65740;52.464;13.446;2023-08-31T01:15:54;17.03;;;16.03;;
76788;SDS011;65740;52.464;13.446;2023-08-31T01:18:24;17.10;;;16.10;;
76788;SDS011;65740;52.464;13.446;2023-08-31T01:20:55;18.13;;;17.13;;
76788;SDS011;65740;52.464;13.446;2023-08-31T01:23:54;18.10;;;17.10;;
76788;SDS011;65740;52.464;13.446;2023-08-31T01:26:21;16.60;;;15.60;;
76788;SDS011;65740;52.464;13.446;2023-08-31T01:28:48;17.27;;;16.27;;
76788;SDS011;65740;52.464;13.446;2023-08-31T01:31:14;17.60;;;16.60;;
76788;SDS011;65740;52.464;13.446;2023-08-31T01:33:40;17.80;;;16.80;;
76788;SDS011;65740;52.464;13.446;2023-08-31T01:36:08;17.40;;;16.40;;
76788;SDS011;65740;52.464;13.446;2023-08-31T01:38:56;17.30;;;16.30;;
76788;SDS011;65740;52.464;13.446;2023-08-31T01:41:28;17.40;;;16.40;;
76788;SDS011;65740;52.464;13.446;2023-08-31T01:43:56;15.73;;;14.93;;
76788;SDS011;65740;52.464;13.446;2023-08-31T01:46:22;18.13;;;17.13;;
76788;SDS011;65740;52.464;13.446;2023-08-31T01:48:48;17.30;;;16.30;;
76788;SDS011;65740;52.464;13.446;2023-08-31T01:51:16;17.67;;;16.67;;
76788;SDS011;65740;52.464;13.446;2023-08-31T01:53:42;16.80;;;15.80;;
76788;SDS011;65740;52.464;13.446;2023-08-31T01:56:09;17.03;;;16.13;;
76788;SDS011;65740;52.464;13.446;2023-08-31T01:58:35;17.10;;;16.10;;
76788;SDS011;65740;52.464;13.446;2023-08-31T02:01:00;16.73;;;15.73;;
76788;SDS011;65740;52.464;13.446;2023-08-31T02:03:26;16.87;;;15.97;;
76788;SDS011;65740;52.464;13.446;2023-08-31T02:05:52;17.17;;;16.20;;
76788;SDS011;65740;52.464;13.446;2023-08-31T02:08:18;16.13;;;15.30;;
76788;SDS011;65740;52.464;13.446;2023-08-31T02:10:44;16.90;;;15.90;;
76788;SDS011;65740;52.464;13.446;2023-08-31T02:13:11;16.70;;;15.80;;
76788;SDS011;65740;52.464;13.446;2023-08-31T02:15:38;16.60;;;15.70;;
76788;SDS011;65740;52.464;13.446;2023-08-31T02:18:04;17.40;;;16.40;;
76788;SDS011;65740;52.464;13.446;2023-08-31T02:20:30;16.27;;;15.37;;
76788;SDS011;65740;52.464;13.446;2023-08-31T02:22:55;17.03;;;16.13;;
76788;SDS011;65740;52.464;13.446;2023-08-31T02:25:21;16.57;;;15.67;;
76788;SDS011;65740;52.464;13.446;2023-08-31T02:27:47;17.40;;;16.40;;
76788;SDS011;65740;52.464;13.446;2023-08-31T02:30:12;16.57;;;15.67;;
76788;SDS011;65740;52.464;13.446;2023-08-31T02:32:38;16.23;;;15.33;;
76788;SDS011;65740;52.464;13.446;2023-08-31T02:35:04;16.70;;;15.80;;
76788;SDS011;65740;52.464;13.446;2023-08-31T02:37:29;16.87;;;16.03;;
76788;SDS011;65740;52.464;13.446;2023-08-31T02:39:55;16.87;;;15.97;;
76788;SDS011;65740;52.464;13.446;2023-08-31T02:42:21;15.00;;;14.20;;
76788;SDS011;65740;52.464;13.446;2023-08-31T02:44:46;15.90;;;15.10;;
76788;SDS011;65740;52.464;13.446;2023-08-31T02:47:12;15.67;;;14.77;;
76788;SDS011;65740;52.464;13.446;2023-08-31T02:49:38;15.57;;;14.77;;
76788;SDS011;65740;52.464;13.446;2023-08-31T02:52:03;15.80;;;14.90;;
76788;SDS011;65740;52.464;13.446;2023-08-31T02:54:29;15.80;;;15.00;;
76788;SDS011;65740;52.464;13.446;2023-08-31T02:56:54;15.60;;;14.80;;
76788;SDS011;65740;52.464;13.446;2023-08-31T02:59:20;15.23;;;14.43;;
76788;SDS011;65740;52.464;13.446;2023-08-31T03:01:46;16.20;;;15.27;;
76788;SDS011;65740;52.464;13.446;2023-08-31T03:04:13;16.27;;;15.40;;
76788;SDS011;65740;52.464;13.446;2023-08-31T03:06:39;15.40;;;14.60;;
76788;SDS011;65740;52.464;13.446;2023-08-31T03:09:04;15.20;;;14.40;;
76788;SDS011;65740;52.464;13.446;2023-08-31T03:11:30;15.90;;;15.00;;
76788;SDS011;65740;52.464;13.446;2023-08-31T03:13:56;15.77;;;14.97;;
76788;SDS011;65740;52.464;13.446;2023-08-31T03:16:21;15.93;;;15.10;;
76788;SDS011;65740;52.464;13.446;2023-08-31T03:18:47;15.37;;;14.57;;
76788;SDS011;65740;52.464;13.446;2023-08-31T03:21:13;16.10;;;15.20;;
76788;SDS011;65740;52.464;13.446;2023-08-31T03:23:38;15.90;;;15.03;;
76788;SDS011;65740;52.464;13.446;2023-08-31T03:26:07;15.57;;;14.67;;
76788;SDS011;65740;52.464;13.446;2023-08-31T03:28:33;15.13;;;14.33;;
76788;SDS011;65740;52.464;13.446;2023-08-31T03:30:59;15.67;;;14.87;;
76788;SDS011;65740;52.464;13.446;2023-08-31T03:33:26;15.80;;;15.00;;
76788;SDS011;65740;52.464;13.446;2023-08-31T03:35:53;15.30;;;14.53;;
76788;SDS011;65740;52.464;13.446;2023-08-31T03:38:24;14.80;;;14.00;;
76788;SDS011;65740;52.464;13.446;2023-08-31T03:40:53;15.60;;;14.80;;
76788;SDS011;65740;52.464;13.446;2023-08-31T03:43:20;15.60;;;14.80;;
76788;SDS011;65740;52.464;13.446;2023-08-31T03:45:45;15.53;;;14.67;;
76788;SDS011;65740;52.464;13.446;2023-08-31T03:48:11;15.27;;;14.57;;
76788;SDS011;65740;52.464;13.446;2023-08-31T03:50:37;15.87;;;15.07;;
76788;SDS011;65740;52.464;13.446;2023-08-31T03:53:02;15.23;;;14.43;;
76788;SDS011;65740;52.464;13.446;2023-08-31T03:55:28;14.80;;;14.10;;
76788;SDS011;65740;52.464;13.446;2023-08-31T03:57:54;15.00;;;14.30;;
76788;SDS011;65740;52.464;13.446;2023-08-31T04:00:19;15.90;;;15.00;;
76788;SDS011;65740;52.464;13.446;2023-08-31T04:02:45;17.17;;;16.27;;
76788;SDS011;65740;52.464;13.446;2023-08-31T04:05:11;15.97;;;15.17;;
76788;SDS011;65740;52.464;13.446;2023-08-31T04:07:39;16.23;;;15.43;;
76788;SDS011;65740;52.464;13.446;2023-08-31T04:10:06;15.40;;;14.60;;
76788;SDS011;65740;52.464;13.446;2023-08-31T04:12:32;16.00;;;15.20;;
76788;SDS011;65740;52.464;13.446;2023-08-31T04:14:59;16.53;;;15.73;;
76788;SDS011;65740;52.464;13.446;2023-08-31T04:17:25;16.43;;;15.63;;
76788;SDS011;65740;52.464;13.446;2023-08-31T04:19:51;16.23;;;15.43;;
76788;SDS011;65740;52.464;13.446;2023-08-31T04:22:17;16.67;;;15.83;;
76788;SDS011;65740;52.464;13.446;2023-08-31T04:24:43;16.70;;;15.90;;
76788;SDS011;65740;52.464;13.446;2023-08-31T04:27:08;16.57;;;15.77;;
76788;SDS011;65740;52.464;13.446;2023-08-31T04:29:34;15.50;;;14.80;;
76788;SDS011;65740;52.464;13.446;2023-08-31T04:31:59;17.47;;;16.57;;
76788;SDS011;65740;52.464;13.446;2023-08-31T04:34:25;16.60;;;15.83;;
76788;SDS011;65740;52.464;13.446;2023-08-31T04:36:52;16.50;;;15.70;;
76788;SDS011;65740;52.464;13.446;2023-08-31T04:39:17;17.30;;;16.50;;
76788;SDS011;65740;52.464;13.446;2023-08-31T04:41:43;16.80;;;16.00;;
76788;SDS011;65740;52.464;13.446;2023-08-31T04:44:08;16.70;;;15.90;;
76788;SDS011;65740;52.464;13.446;2023-08-31T04:46:34;16.30;;;15.50;;
76788;SDS011;65740;52.464;13.446;2023-08-31T04:49:00;16.60;;;15.80;;
76788;SDS011;65740;52.464;13.446;2023-08-31T04:53:57;15.93;;;15.13;;
76788;SDS011;65740;52.464;13.446;2023-08-31T04:56:23;16.50;;;15.70;;
76788;SDS011;65740;52.464;13.446;2023-08-31T04:58:48;16.70;;;15.90;;
76788;SDS011;65740;52.464;13.446;2023-08-31T05:01:14;16.30;;;15.50;;
76788;SDS011;65740;52.464;13.446;2023-08-31T05:03:41;15.90;;;15.10;;
76788;SDS011;65740;52.464;13.446;2023-08-31T05:06:06;16.27;;;15.50;;
76788;SDS011;65740;52.464;13.446;2023-08-31T05:08:32;16.13;;;15.33;;
76788;SDS011;65740;52.464;13.446;2023-08-31T05:10:58;15.60;;;14.90;;
76788;SDS011;65740;52.464;13.446;2023-08-31T05:13:24;16.70;;;15.90;;
76788;SDS011;65740;52.464;13.446;2023-08-31T05:15:50;16.53;;;15.73;;
76788;SDS011;65740;52.464;13.446;2023-08-31T05:18:15;16.53;;;15.73;;
76788;SDS011;65740;52.464;13.446;2023-08-31T05:20:44;16.17;;;15.37;;
76788;SDS011;65740;52.464;13.446;2023-08-31T05:23:10;17.20;;;16.40;;
76788;SDS011;65740;52.464;13.446;2023-08-31T05:25:41;16.67;;;15.87;;
76788;SDS011;65740;52.464;13.446;2023-08-31T05:28:09;16.00;;;15.30;;
76788;SDS011;65740;52.464;13.446;2023-08-31T05:30:35;16.37;;;15.60;;
76788;SDS011;65740;52.464;13.446;2023-08-31T05:33:01;15.50;;;14.80;;
76788;SDS011;65740;52.464;13.446;2023-08-31T05:35:27;15.60;;;14.90;;
76788;SDS011;65740;52.464;13.446;2023-08-31T05:37:52;15.93;;;15.23;;
76788;SDS011;65740;52.464;13.446;2023-08-31T05:40:18;16.10;;;15.30;;
76788;SDS011;65740;52.464;13.446;2023-08-31T05:42:43;15.67;;;14.97;;
76788;SDS011;65740;52.464;13.446;2023-08-31T05:45:09;15.73;;;15.00;;
76788;SDS011;65740;52.464;13.446;2023-08-31T05:47:35;16.57;;;15.77;;
76788;SDS011;65740;52.464;13.446;2023-08-31T05:50:01;15.13;;;14.43;;
76788;SDS011;65740;52.464;13.446;2023-08-31T05:52:28;16.07;;;15.37;;
76788;SDS011;65740;52.464;13.446;2023-08-31T05:54:53;15.63;;;14.93;;
76788;SDS011;65740;52.464;13.446;2023-08-31T05:57:19;16.33;;;15.63;;
76788;SDS011;65740;52.464;13.446;2023-08-31T05:59:48;14.90;;;14.30;;
76788;SDS011;65740;52.464;13.446;2023-08-31T06:02:14;15.90;;;15.20;;
76788;SDS011;65740;52.464;13.446;2023-08-31T06:04:39;15.80;;;15.10;;
76788;SDS011;65740;52.464;13.446;2023-08-31T06:07:05;17.23;;;16.47;;
76788;SDS011;65740;52.464;13.446;2023-08-31T06:09:31;16.80;;;16.00;;
76788;SDS011;65740;52.464;13.446;2023-08-31T06:11:56;16.00;;;15.30;;
76788;SDS011;65740;52.464;13.446;2023-08-31T06:14:22;16.43;;;15.73;;
76788;SDS011;65740;52.464;13.446;2023-08-31T06:16:47;16.70;;;16.00;;
76788;SDS011;65740;52.464;13.446;2023-08-31T06:19:13;15.83;;;15.13;;
76788;SDS011;65740;52.464;13.446;2023-08-31T06:21:41;16.60;;;15.80;;
76788;SDS011;65740;52.464;13.446;2023-08-31T06:24:07;16.70;;;16.00;;
76788;SDS011;65740;52.464;13.446;2023-08-31T06:26:35;16.63;;;15.93;;
76788;SDS011;65740;52.464;13.446;2023-08-31T06:29:01;16.60;;;15.90;;
76788;SDS011;65740;52.464;13.446;2023-08-31T06:31:28;17.27;;;16.47;;
76788;SDS011;65740;52.464;13.446;2023-08-31T06:33:54;16.37;;;15.57;;
76788;SDS011;65740;52.464;13.446;2023-08-31T06:36:20;16.17;;;15.47;;
76788;SDS011;65740;52.464;13.446;2023-08-31T06:38:45;16.43;;;15.63;;
76788;SDS011;65740;52.464;13.446;2023-08-31T06:41:11;16.23;;;15.53;;
76788;SDS011;65740;52.464;13.446;2023-08-31T06:43:37;15.93;;;15.23;;
76788;SDS011;65740;52.464;13.446;2023-08-31T06:46:02;16.33;;;15.63;;
76788;SDS011;65740;52.464;13.446;2023-08-31T06:48:28;15.73;;;15.03;;
76788;SDS011;65740;52.464;13.446;2023-08-31T06:50:54;15.40;;;14.60;;
76788;SDS011;65740;52.464;13.446;2023-08-31T06:53:21;15.50;;;14.80;;
76788;SDS011;65740;52.464;13.446;2023-08-31T06:55:46;15.50;;;14.80;;
76788;SDS011;65740;52.464;13.446;2023-08-31T06:58:12;15.37;;;14.67;;
76788;SDS011;65740;52.464;13.446;2023-08-31T07:00:37;15.90;;;15.20;;
76788;SDS011;65740;52.464;13.446;2023-08-31T07:03:03;15.30;;;14.60;;
76788;SDS011;65740;52.464;13.446;2023-08-31T07:05:32;15.10;;;14.50;;
76788;SDS011;65740;52.464;13.446;2023-08-31T07:08:00;15.63;;;14.93;;
76788;SDS011;65740;52.464;13.446;2023-08-31T07:10:27;15.47;;;14.77;;
76788;SDS011;65740;52.464;13.446;2023-08-31T07:12:52;14.90;;;14.30;;
76788;SDS011;65740;52.464;13.446;2023-08-31T07:15:18;15.10;;;14.43;;
76788;SDS011;65740;52.464;13.446;2023-08-31T07:17:44;15.80;;;15.10;;
76788;SDS011;65740;52.464;13.446;2023-08-31T07:20:09;15.30;;;14.60;;
76788;SDS011;65740;52.464;13.446;2023-08-31T07:22:36;15.80;;;15.10;;
76788;SDS011;65740;52.464;13.446;2023-08-31T07:25:03;16.03;;;14.83;;
76788;SDS011;65740;52.464;13.446;2023-08-31T07:27:29;14.67;;;14.07;;
76788;SDS011;65740;52.464;13.446;2023-08-31T07:29:55;15.63;;;14.57;;
76788;SDS011;65740;52.464;13.446;2023-08-31T07:32:20;17.40;;;16.17;;
76788;SDS011;65740;52.464;13.446;2023-08-31T07:34:47;18.07;;;16.50;;
76788;SDS011;65740;52.464;13.446;2023-08-31T07:37:13;18.93;;;17.53;;
76788;SDS011;65740;52.464;13.446;2023-08-31T07:39:38;16.43;;;15.53;;
76788;SDS011;65740;52.464;13.446;2023-08-31T07:42:05;17.40;;;16.30;;
76788;SDS011;65740;52.464;13.446;2023-08-31T07:44:31;17.70;;;16.70;;
76788;SDS011;65740;52.464;13.446;2023-08-31T07:46:56;17.23;;;16.23;;
76788;SDS011;65740;52.464;13.446;2023-08-31T07:49:22;16.33;;;15.37;;
76788;SDS011;65740;52.464;13.446;2023-08-31T07:51:48;16.40;;;15.50;;
76788;SDS011;65740;52.464;13.446;2023-08-31T07:54:20;16.70;;;15.70;;
76788;SDS011;65740;52.464;13.446;2023-08-31T07:56:46;16.93;;;15.87;;
76788;SDS011;65740;52.464;13.446;2023-08-31T07:59:12;16.90;;;15.90;;
76788;SDS011;65740;52.464;13.446;2023-08-31T08:01:38;19.23;;;17.93;;
76788;SDS011;65740;52.464;13.446;2023-08-31T08:04:03;23.30;;;21.80;;
76788;SDS011;65740;52.464;13.446;2023-08-31T08:06:29;22.77;;;21.13;;
76788;SDS011;65740;52.464;13.446;2023-08-31T08:08:55;21.40;;;20.00;;
76788;SDS011;65740;52.464;13.446;2023-08-31T08:11:21;22.17;;;20.50;;
76788;SDS011;65740;52.464;13.446;2023-08-31T08:13:47;22.57;;;20.87;;
76788;SDS011;65740;52.464;13.446;2023-08-31T08:16:13;21.83;;;20.40;;
76788;SDS011;65740;52.464;13.446;2023-08-31T08:18:39;20.47;;;19.00;;
76788;SDS011;65740;52.464;13.446;2023-08-31T08:21:05;20.30;;;18.70;;
76788;SDS011;65740;52.464;13.446;2023-08-31T08:23:31;21.03;;;19.43;;
76788;SDS011;65740;52.464;13.446;2023-08-31T08:25:56;22.67;;;20.77;;
76788;SDS011;65740;52.464;13.446;2023-08-31T08:28:24;20.30;;;18.90;;
76788;SDS011;65740;52.464;13.446;2023-08-31T08:30:51;22.17;;;20.17;;
76788;SDS011;65740;52.464;13.446;2023-08-31T08:33:16;20.47;;;18.67;;
76788;SDS011;65740;52.464;13.446;2023-08-31T08:35:42;22.23;;;20.53;;
76788;SDS011;65740;52.464;13.446;2023-08-31T08:38:07;21.30;;;19.60;;
76788;SDS011;65740;52.464;13.446;2023-08-31T08:40:34;20.23;;;18.30;;
76788;SDS011;65740;52.464;13.446;2023-08-31T08:43:00;22.13;;;20.27;;
76788;SDS011;65740;52.464;13.446;2023-08-31T08:45:27;21.40;;;19.60;;
76788;SDS011;65740;52.464;13.446;2023-08-31T08:47:57;20.47;;;18.87;;
76788;SDS011;65740;52.464;13.446;2023-08-31T08:50:23;21.53;;;19.57;;
76788;SDS011;65740;52.464;13.446;2023-08-31T08:52:49;20.27;;;18.63;;
76788;SDS011;65740;52.464;13.446;2023-08-31T08:55:16;20.20;;;18.93;;
76788;SDS011;65740;52.464;13.446;2023-08-31T08:57:42;20.63;;;19.00;;
76788;SDS011;65740;52.464;13.446;2023-08-31T09:00:07;21.87;;;19.83;;
76788;SDS011;65740;52.464;13.446;2023-08-31T09:02:34;19.30;;;17.90;;
76788;SDS011;65740;52.464;13.446;2023-08-31T09:04:59;19.80;;;18.40;;
76788;SDS011;65740;52.464;13.446;2023-08-31T09:07:26;20.50;;;18.87;;
76788;SDS011;65740;52.464;13.446;2023-08-31T09:09:54;20.23;;;18.80;;
76788;SDS011;65740;52.464;13.446;2023-08-31T09:12:21;19.63;;;18.07;;
76788;SDS011;65740;52.464;13.446;2023-08-31T09:17:24;20.60;;;19.10;;
76788;SDS011;65740;52.464;13.446;2023-08-31T09:20:00;20.17;;;18.63;;
76788;SDS011;65740;52.464;13.446;2023-08-31T09:22:28;20.57;;;18.90;;
76788;SDS011;65740;52.464;13.446;2023-08-31T09:24:54;19.77;;;18.00;;
76788;SDS011;65740;52.464;13.446;2023-08-31T09:27:20;19.93;;;18.53;;
76788;SDS011;65740;52.464;13.446;2023-08-31T09:29:46;19.90;;;18.37;;
76788;SDS011;65740;52.464;13.446;2023-08-31T09:32:18;20.17;;;18.57;;
76788;SDS011;65740;52.464;13.446;2023-08-31T09:34:44;20.27;;;18.77;;
76788;SDS011;65740;52.464;13.446;2023-08-31T09:37:10;20.23;;;18.60;;
76788;SDS011;65740;52.464;13.446;2023-08-31T09:39:36;20.03;;;18.67;;
76788;SDS011;65740;52.464;13.446;2023-08-31T09:42:05;20.10;;;18.80;;
76788;SDS011;65740;52.464;13.446;2023-08-31T09:44:31;19.23;;;17.93;;
76788;SDS011;65740;52.464;13.446;2023-08-31T09:46:57;19.53;;;18.10;;
76788;SDS011;65740;52.464;13.446;2023-08-31T09:49:23;19.13;;;18.03;;
76788;SDS011;65740;52.464;13.446;2023-08-31T09:51:50;19.60;;;18.30;;
76788;SDS011;65740;52.464;13.446;2023-08-31T09:54:17;18.80;;;17.70;;
76788;SDS011;65740;52.464;13.446;2023-08-31T09:56:46;20.30;;;18.60;;
76788;SDS011;65740;52.464;13.446;2023-08-31T09:59:13;21.27;;;19.63;;
76788;SDS011;65740;52.464;13.446;2023-08-31T10:01:40;20.10;;;18.93;;
76788;SDS011;65740;52.464;13.446;2023-08-31T10:04:07;19.60;;;18.30;;
76788;SDS011;65740;52.464;13.446;2023-08-31T10:06:36;18.83;;;17.73;;
76788;SDS011;65740;52.464;13.446;2023-08-31T10:09:04;18.43;;;17.23;;
76788;SDS011;65740;52.464;13.446;2023-08-31T10:11:30;19.17;;;17.87;;
76788;SDS011;65740;52.464;13.446;2023-08-31T10:13:57;18.80;;;17.60;;
76788;SDS011;65740;52.464;13.446;2023-08-31T10:16:26;19.10;;;17.67;;
76788;SDS011;65740;52.464;13.446;2023-08-31T10:18:52;16.97;;;15.70;;
76788;SDS011;65740;52.464;13.446;2023-08-31T10:21:21;17.57;;;16.40;;
76788;SDS011;65740;52.464;13.446;2023-08-31T10:23:47;17.57;;;16.37;;
76788;SDS011;65740;52.464;13.446;2023-08-31T10:26:22;17.13;;;15.83;;
76788;SDS011;65740;52.464;13.446;2023-08-31T10:28:58;18.13;;;16.73;;
76788;SDS011;65740;52.464;13.446;2023-08-31T10:31:28;17.60;;;16.40;;
76788;SDS011;65740;52.464;13.446;2023-08-31T10:33:55;17.27;;;16.20;;
76788;SDS011;65740;52.464;13.446;2023-08-31T10:36:22;17.40;;;16.50;;
76788;SDS011;65740;52.464;13.446;2023-08-31T10:39:17;17.97;;;16.83;;
76788;SDS011;65740;52.464;13.446;2023-08-31T10:41:56;17.20;;;15.50;;
76788;SDS011;65740;52.464;13.446;2023-08-31T10:44:26;16.77;;;15.87;;
76788;SDS011;65740;52.464;13.446;2023-08-31T10:46:53;16.93;;;15.93;;
76788;SDS011;65740;52.464;13.446;2023-08-31T10:49:20;17.07;;;15.97;;
76788;SDS011;65740;52.464;13.446;2023-08-31T10:51:48;16.97;;;15.93;;
76788;SDS011;65740;52.464;13.446;2023-08-31T10:54:39;20.50;;;18.67;;
76788;SDS011;65740;52.464;13.446;2023-08-31T10:57:05;26.13;;;23.77;;
76788;SDS011;65740;52.464;13.446;2023-08-31T10:59:41;95.73;;;49.93;;
76788;SDS011;65740;52.464;13.446;2023-08-31T11:02:09;58.50;;;38.27;;
76788;SDS011;65740;52.464;13.446;2023-08-31T11:04:53;54.03;;;34.70;;
76788;SDS011;65740;52.464;13.446;2023-08-31T11:07:24;42.40;;;33.10;;
76788;SDS011;65740;52.464;13.446;2023-08-31T11:09:51;45.73;;;32.60;;
76788;SDS011;65740;52.464;13.446;2023-08-31T11:12:17;40.00;;;32.23;;
76788;SDS011;65740;52.464;13.446;2023-08-31T11:14:42;36.37;;;29.70;;
76788;SDS011;65740;52.464;13.446;2023-08-31T11:17:08;38.07;;;31.20;;
76788;SDS011;65740;52.464;13.446;2023-08-31T11:19:35;38.30;;;28.37;;
76788;SDS011;65740;52.464;13.446;2023-08-31T11:22:02;37.87;;;28.07;;
76788;SDS011;65740;52.464;13.446;2023-08-31T11:24:32;36.70;;;27.97;;
76788;SDS011;65740;52.464;13.446;2023-08-31T11:26:58;38.10;;;26.87;;
76788;SDS011;65740;52.464;13.446;2023-08-31T11:29:24;29.60;;;26.40;;
76788;SDS011;65740;52.464;13.446;2023-08-31T11:31:50;27.40;;;24.60;;
76788;SDS011;65740;52.464;13.446;2023-08-31T11:34:16;27.93;;;23.97;;
76788;SDS011;65740;52.464;13.446;2023-08-31T11:36:43;27.70;;;24.13;;
76788;SDS011;65740;52.464;13.446;2023-08-31T11:39:10;25.50;;;23.00;;
76788;SDS011;65740;52.464;13.446;2023-08-31T11:41:37;24.03;;;21.70;;
76788;SDS011;65740;52.464;13.446;2023-08-31T11:44:09;22.50;;;20.50;;
76788;SDS011;65740;52.464;13.446;2023-08-31T11:46:42;23.17;;;21.07;;
76788;SDS011;65740;52.464;13.446;2023-08-31T11:49:09;21.70;;;19.70;;
76788;SDS011;65740;52.464;13.446;2023-08-31T11:51:35;21.80;;;19.97;;
76788;SDS011;65740;52.464;13.446;2023-08-31T11:54:04;21.50;;;19.80;;
76788;SDS011;65740;52.464;13.446;2023-08-31T11:56:40;22.43;;;20.23;;
76788;SDS011;65740;52.464;13.446;2023-08-31T11:59:09;21.00;;;19.10;;
76788;SDS011;65740;52.464;13.446;2023-08-31T12:01:46;20.80;;;19.20;;
76788;SDS011;65740;52.464;13.446;2023-08-31T12:04:13;21.63;;;19.80;;
76788;SDS011;65740;52.464;13.446;2023-08-31T12:06:41;21.60;;;19.60;;
76788;SDS011;65740;52.464;13.446;2023-08-31T12:09:10;21.33;;;19.63;;
76788;SDS011;65740;52.464;13.446;2023-08-31T12:11:36;21.07;;;19.47;;
76788;SDS011;65740;52.464;13.446;2023-08-31T12:14:02;20.23;;;18.53;;
76788;SDS011;65740;52.464;13.446;2023-08-31T12:16:34;20.37;;;18.70;;
76788;SDS011;65740;52.464;13.446;2023-08-31T12:19:04;18.73;;;17.33;;
76788;SDS011;65740;52.464;13.446;2023-08-31T12:21:30;20.30;;;18.30;;
76788;SDS011;65740;52.464;13.446;2023-08-31T12:23:57;19.77;;;18.30;;
76788;SDS011;65740;52.464;13.446;2023-08-31T12:26:23;19.60;;;18.00;;
76788;SDS011;65740;52.464;13.446;2023-08-31T12:28:50;19.17;;;17.67;;
76788;SDS011;65740;52.464;13.446;2023-08-31T12:31:15;20.10;;;18.60;;
76788;SDS011;65740;52.464;13.446;2023-08-31T12:33:41;19.40;;;17.73;;
76788;SDS011;65740;52.464;13.446;2023-08-31T12:36:07;19.40;;;17.90;;
76788;SDS011;65740;52.464;13.446;2023-08-31T12:38:32;19.67;;;18.30;;
76788;SDS011;65740;52.464;13.446;2023-08-31T12:40:58;19.07;;;17.33;;
76788;SDS011;65740;52.464;13.446;2023-08-31T12:43:24;18.97;;;17.70;;
76788;SDS011;65740;52.464;13.446;2023-08-31T12:45:50;19.83;;;18.37;;
76788;SDS011;65740;52.464;13.446;2023-08-31T12:48:15;19.50;;;17.80;;
76788;SDS011;65740;52.464;13.446;2023-08-31T12:50:41;19.23;;;17.50;;
76788;SDS011;65740;52.464;13.446;2023-08-31T12:53:07;18.50;;;17.10;;
76788;SDS011;65740;52.464;13.446;2023-08-31T12:55:32;18.90;;;17.40;;
76788;SDS011;65740;52.464;13.446;2023-08-31T12:57:58;19.60;;;17.53;;
76788;SDS011;65740;52.464;13.446;2023-08-31T13:00:24;18.30;;;17.10;;
76788;SDS011;65740;52.464;13.446;2023-08-31T13:02:50;18.93;;;17.13;;
76788;SDS011;65740;52.464;13.446;2023-08-31T13:05:16;17.90;;;16.60;;
76788;SDS011;65740;52.464;13.446;2023-08-31T13:07:42;18.47;;;16.60;;
76788;SDS011;65740;52.464;13.446;2023-08-31T13:10:09;18.53;;;16.87;;
76788;SDS011;65740;52.464;13.446;2023-08-31T13:12:34;20.00;;;18.03;;
76788;SDS011;65740;52.464;13.446;2023-08-31T13:15:01;19.30;;;17.30;;
76788;SDS011;65740;52.464;13.446;2023-08-31T13:17:27;17.07;;;15.83;;
76788;SDS011;65740;52.464;13.446;2023-08-31T13:19:53;18.07;;;16.63;;
76788;SDS011;65740;52.464;13.446;2023-08-31T13:22:20;19.53;;;18.07;;
76788;SDS011;65740;52.464;13.446;2023-08-31T13:24:46;19.07;;;17.67;;
76788;SDS011;65740;52.464;13.446;2023-08-31T13:27:11;18.73;;;17.23;;
76788;SDS011;65740;52.464;13.446;2023-08-31T13:29:39;30.30;;;16.70;;
76788;SDS011;65740;52.464;13.446;2023-08-31T13:32:05;16.60;;;15.20;;
76788;SDS011;65740;52.464;13.446;2023-08-31T13:34:32;18.33;;;16.50;;
76788;SDS011;65740;52.464;13.446;2023-08-31T13:36:59;17.93;;;16.53;;
76788;SDS011;65740;52.464;13.446;2023-08-31T13:39:25;18.53;;;17.07;;
76788;SDS011;65740;52.464;13.446;2023-08-31T13:41:51;17.30;;;16.03;;
76788;SDS011;65740;52.464;13.446;2023-08-31T13:44:20;17.70;;;16.40;;
76788;SDS011;65740;52.464;13.446;2023-08-31T13:46:47;18.90;;;16.97;;
76788;SDS011;65740;52.464;13.446;2023-08-31T13:49:14;18.13;;;16.83;;
76788;SDS011;65740;52.464;13.446;2023-08-31T13:51:40;18.50;;;17.10;;
76788;SDS011;65740;52.464;13.446;2023-08-31T13:54:06;18.10;;;16.97;;
76788;SDS011;65740;52.464;13.446;2023-08-31T13:56:32;17.30;;;16.07;;
76788;SDS011;65740;52.464;13.446;2023-08-31T13:58:58;18.60;;;17.10;;
76788;SDS011;65740;52.464;13.446;2023-08-31T14:01:24;19.23;;;17.40;;
76788;SDS011;65740;52.464;13.446;2023-08-31T14:03:51;19.80;;;17.93;;
76788;SDS011;65740;52.464;13.446;2023-08-31T14:06:17;18.70;;;17.30;;
76788;SDS011;65740;52.464;13.446;2023-08-31T14:08:43;18.90;;;17.47;;
76788;SDS011;65740;52.464;13.446;2023-08-31T14:11:09;17.40;;;16.10;;
76788;SDS011;65740;52.464;13.446;2023-08-31T14:13:34;17.90;;;16.50;;
76788;SDS011;65740;52.464;13.446;2023-08-31T14:16:00;16.87;;;15.67;;